sensor_id;sensor_type;location;lat;lon;timestamp;pressure;altitude;pressure_sealevel;temperature;humidity
68616;BME280;57261;47.504;19.084;2022-07-22T00:02:40;100434.63;;;30.03;48.77
68616;BME280;57261;47.504;19.084;2022-07-22T00:05:40;100439.38;;;30.17;47.82
68616;BME280;57261;47.504;19.084;2022-07-22T00:08:41;100444.22;;;30.22;46.52
68616;BME280;57261;47.504;19.084;2022-07-22T00:11:41;100438.56;;;30.17;46.64
68616;BME280;57261;47.504;19.084;2022-07-22T00:14:41;100434.16;;;30.08;47.97
68616;BME280;57261;47.504;19.084;2022-07-22T00:17:42;100433.88;;;30.19;47.22
68616;BME280;57261;47.504;19.084;2022-07-22T00:20:42;100438.03;;;30.13;47.53
68616;BME280;57261;47.504;19.084;2022-07-22T00:23:43;100439.28;;;29.84;48.25
68616;BME280;57261;47.504;19.084;2022-07-22T00:26:43;100441.16;;;30.09;47.10
68616;BME280;57261;47.504;19.084;2022-07-22T00:29:44;100438.28;;;30.28;45.01
68616;BME280;57261;47.504;19.084;2022-07-22T00:32:44;100439.94;;;30.29;46.32
68616;BME280;57261;47.504;19.084;2022-07-22T00:35:45;100431.22;;;30.44;41.20
68616;BME280;57261;47.504;19.084;2022-07-22T00:38:45;100424.97;;;30.53;42.41
68616;BME280;57261;47.504;19.084;2022-07-22T00:41:45;100436.28;;;30.55;45.82
68616;BME280;57261;47.504;19.084;2022-07-22T00:44:46;100435.50;;;30.63;42.87
68616;BME280;57261;47.504;19.084;2022-07-22T00:47:46;100424.50;;;30.58;46.25
68616;BME280;57261;47.504;19.084;2022-07-22T00:50:46;100434.81;;;30.61;42.77
68616;BME280;57261;47.504;19.084;2022-07-22T00:53:47;100432.19;;;30.69;40.93
68616;BME280;57261;47.504;19.084;2022-07-22T00:56:47;100439.16;;;30.62;45.17
68616;BME280;57261;47.504;19.084;2022-07-22T00:59:48;100437.19;;;30.64;41.24
68616;BME280;57261;47.504;19.084;2022-07-22T01:02:48;100446.97;;;30.63;46.69
68616;BME280;57261;47.504;19.084;2022-07-22T01:05:49;100444.28;;;30.55;41.19
68616;BME280;57261;47.504;19.084;2022-07-22T01:08:49;100451.00;;;30.67;42.51
68616;BME280;57261;47.504;19.084;2022-07-22T01:11:50;100454.50;;;30.68;46.35
68616;BME280;57261;47.504;19.084;2022-07-22T01:14:50;100452.91;;;30.32;47.49
68616;BME280;57261;47.504;19.084;2022-07-22T01:17:50;100461.66;;;30.42;43.92
68616;BME280;57261;47.504;19.084;2022-07-22T01:20:51;100456.28;;;30.34;47.86
68616;BME280;57261;47.504;19.084;2022-07-22T01:23:51;100453.28;;;30.54;38.35
68616;BME280;57261;47.504;19.084;2022-07-22T01:26:52;100455.44;;;30.59;39.80
68616;BME280;57261;47.504;19.084;2022-07-22T01:29:52;100456.69;;;30.72;38.46
68616;BME280;57261;47.504;19.084;2022-07-22T01:32:53;100454.69;;;30.74;38.06
68616;BME280;57261;47.504;19.084;2022-07-22T01:35:53;100446.19;;;30.78;37.06
68616;BME280;57261;47.504;19.084;2022-07-22T01:38:54;100444.22;;;30.80;37.43
68616;BME280;57261;47.504;19.084;2022-07-22T01:41:54;100445.06;;;30.81;37.60
68616;BME280;57261;47.504;19.084;2022-07-22T01:44:55;100448.38;;;30.83;37.19
68616;BME280;57261;47.504;19.084;2022-07-22T01:47:56;100451.56;;;30.86;36.58
68616;BME280;57261;47.504;19.084;2022-07-22T01:50:56;100449.56;;;30.80;36.82
68616;BME280;57261;47.504;19.084;2022-07-22T01:53:57;100446.91;;;30.88;35.13
68616;BME280;57261;47.504;19.084;2022-07-22T01:56:57;100435.44;;;30.88;35.58
68616;BME280;57261;47.504;19.084;2022-07-22T01:59:58;100448.25;;;30.92;35.65
68616;BME280;57261;47.504;19.084;2022-07-22T02:02:58;100450.78;;;30.94;36.09
68616;BME280;57261;47.504;19.084;2022-07-22T02:05:59;100447.75;;;30.89;36.49
68616;BME280;57261;47.504;19.084;2022-07-22T02:08:59;100448.09;;;30.86;37.49
68616;BME280;57261;47.504;19.084;2022-07-22T02:11:59;100447.22;;;30.85;37.04
68616;BME280;57261;47.504;19.084;2022-07-22T02:15:00;100447.41;;;30.84;36.95
68616;BME280;57261;47.504;19.084;2022-07-22T02:18:17;100439.41;;;30.84;36.49
68616;BME280;57261;47.504;19.084;2022-07-22T02:21:18;100441.72;;;30.79;36.83
68616;BME280;57261;47.504;19.084;2022-07-22T02:24:19;100451.22;;;30.81;37.07
68616;BME280;57261;47.504;19.084;2022-07-22T02:27:19;100460.03;;;30.82;36.77
68616;BME280;57261;47.504;19.084;2022-07-22T02:30:19;100470.84;;;30.80;36.46
68616;BME280;57261;47.504;19.084;2022-07-22T02:33:23;100474.38;;;30.81;35.40
68616;BME280;57261;47.504;19.084;2022-07-22T02:36:23;100478.31;;;30.77;36.37
68616;BME280;57261;47.504;19.084;2022-07-22T02:39:24;100472.47;;;30.73;36.23
68616;BME280;57261;47.504;19.084;2022-07-22T02:42:24;100474.63;;;30.70;36.78
68616;BME280;57261;47.504;19.084;2022-07-22T02:45:25;100461.09;;;30.56;36.98
68616;BME280;57261;47.504;19.084;2022-07-22T02:48:25;100473.56;;;30.55;37.33
68616;BME280;57261;47.504;19.084;2022-07-22T02:51:26;100483.38;;;30.55;37.51
68616;BME280;57261;47.504;19.084;2022-07-22T02:54:26;100470.22;;;30.53;37.42
68616;BME280;57261;47.504;19.084;2022-07-22T02:57:26;100469.25;;;30.54;37.28
68616;BME280;57261;47.504;19.084;2022-07-22T03:00:27;100474.03;;;30.51;37.58
68616;BME280;57261;47.504;19.084;2022-07-22T03:03:27;100481.66;;;30.46;36.94
68616;BME280;57261;47.504;19.084;2022-07-22T03:06:28;100485.97;;;30.47;37.27
68616;BME280;57261;47.504;19.084;2022-07-22T03:09:29;100478.31;;;30.44;37.53
68616;BME280;57261;47.504;19.084;2022-07-22T03:12:29;100482.94;;;30.42;37.66
68616;BME280;57261;47.504;19.084;2022-07-22T03:15:30;100469.09;;;30.38;36.97
68616;BME280;57261;47.504;19.084;2022-07-22T03:18:30;100476.63;;;30.43;37.02
68616;BME280;57261;47.504;19.084;2022-07-22T03:21:31;100469.28;;;30.37;37.42
68616;BME280;57261;47.504;19.084;2022-07-22T03:24:31;100480.22;;;30.34;36.84
68616;BME280;57261;47.504;19.084;2022-07-22T03:27:31;100493.75;;;30.40;37.16
68616;BME280;57261;47.504;19.084;2022-07-22T03:30:32;100483.22;;;30.31;36.84
68616;BME280;57261;47.504;19.084;2022-07-22T03:33:32;100485.38;;;30.35;37.54
68616;BME280;57261;47.504;19.084;2022-07-22T03:36:33;100496.53;;;30.39;36.98
68616;BME280;57261;47.504;19.084;2022-07-22T03:39:33;100504.16;;;30.34;37.23
68616;BME280;57261;47.504;19.084;2022-07-22T03:42:34;100498.16;;;30.32;37.02
68616;BME280;57261;47.504;19.084;2022-07-22T03:45:34;100498.50;;;30.29;37.77
68616;BME280;57261;47.504;19.084;2022-07-22T03:48:34;100488.78;;;30.20;37.96
68616;BME280;57261;47.504;19.084;2022-07-22T03:51:35;100495.47;;;30.24;37.25
68616;BME280;57261;47.504;19.084;2022-07-22T03:54:36;100490.81;;;30.26;37.92
68616;BME280;57261;47.504;19.084;2022-07-22T03:57:36;100492.13;;;30.22;37.31
68616;BME280;57261;47.504;19.084;2022-07-22T04:00:37;100489.16;;;30.25;37.44
68616;BME280;57261;47.504;19.084;2022-07-22T04:03:37;100494.78;;;30.22;36.88
68616;BME280;57261;47.504;19.084;2022-07-22T04:06:37;100498.94;;;30.24;37.42
68616;BME280;57261;47.504;19.084;2022-07-22T04:09:38;100492.47;;;30.27;36.81
68616;BME280;57261;47.504;19.084;2022-07-22T04:12:41;100491.19;;;30.31;36.49
68616;BME280;57261;47.504;19.084;2022-07-22T04:15:42;100488.00;;;30.27;36.62
68616;BME280;57261;47.504;19.084;2022-07-22T04:18:42;100494.69;;;30.31;37.01
68616;BME280;57261;47.504;19.084;2022-07-22T04:21:42;100484.31;;;30.28;37.17
68616;BME280;57261;47.504;19.084;2022-07-22T04:24:43;100488.66;;;30.29;37.35
68616;BME280;57261;47.504;19.084;2022-07-22T04:27:43;100497.78;;;30.27;37.30
68616;BME280;57261;47.504;19.084;2022-07-22T04:30:43;100492.19;;;30.30;37.54
68616;BME280;57261;47.504;19.084;2022-07-22T04:33:44;100487.69;;;30.30;37.72
68616;BME280;57261;47.504;19.084;2022-07-22T04:36:45;100489.53;;;30.30;37.70
68616;BME280;57261;47.504;19.084;2022-07-22T04:39:45;100481.19;;;30.33;37.90
68616;BME280;57261;47.504;19.084;2022-07-22T04:42:46;100488.66;;;30.29;38.04
68616;BME280;57261;47.504;19.084;2022-07-22T04:45:47;100484.31;;;30.28;38.27
68616;BME280;57261;47.504;19.084;2022-07-22T04:48:47;100490.34;;;30.30;39.06
68616;BME280;57261;47.504;19.084;2022-07-22T04:51:48;100484.19;;;30.30;38.51
68616;BME280;57261;47.504;19.084;2022-07-22T04:54:48;100486.69;;;30.31;38.99
68616;BME280;57261;47.504;19.084;2022-07-22T04:57:49;100490.03;;;30.33;38.59
68616;BME280;57261;47.504;19.084;2022-07-22T05:00:49;100490.03;;;30.33;39.10
68616;BME280;57261;47.504;19.084;2022-07-22T05:03:50;100495.19;;;30.35;38.95
68616;BME280;57261;47.504;19.084;2022-07-22T05:06:52;100495.59;;;30.22;42.21
68616;BME280;57261;47.504;19.084;2022-07-22T05:09:52;100492.69;;;30.33;41.11
68616;BME280;57261;47.504;19.084;2022-07-22T05:12:53;100495.50;;;30.32;43.76
68616;BME280;57261;47.504;19.084;2022-07-22T05:15:53;100497.16;;;30.33;39.88
68616;BME280;57261;47.504;19.084;2022-07-22T05:18:54;100490.88;;;30.34;40.02
68616;BME280;57261;47.504;19.084;2022-07-22T05:21:54;100492.53;;;30.35;39.59
68616;BME280;57261;47.504;19.084;2022-07-22T05:24:54;100504.53;;;30.39;37.20
68616;BME280;57261;47.504;19.084;2022-07-22T05:27:55;100494.72;;;30.39;37.09
68616;BME280;57261;47.504;19.084;2022-07-22T05:30:56;100499.88;;;30.41;37.52
68616;BME280;57261;47.504;19.084;2022-07-22T05:33:57;100493.75;;;30.40;38.12
68616;BME280;57261;47.504;19.084;2022-07-22T05:36:57;100503.25;;;30.43;38.24
68616;BME280;57261;47.504;19.084;2022-07-22T05:39:58;100496.53;;;30.39;37.95
68616;BME280;57261;47.504;19.084;2022-07-22T05:42:58;100500.16;;;30.47;41.44
68616;BME280;57261;47.504;19.084;2022-07-22T05:45:59;100500.28;;;30.46;38.16
68616;BME280;57261;47.504;19.084;2022-07-22T05:48:59;100509.13;;;30.46;38.69
68616;BME280;57261;47.504;19.084;2022-07-22T05:52:00;100504.41;;;30.40;44.23
68616;BME280;57261;47.504;19.084;2022-07-22T05:55:00;100511.78;;;30.29;43.95
68616;BME280;57261;47.504;19.084;2022-07-22T05:58:01;100515.50;;;30.36;40.86
68616;BME280;57261;47.504;19.084;2022-07-22T06:01:02;100515.34;;;30.37;40.43
68616;BME280;57261;47.504;19.084;2022-07-22T06:04:04;100517.56;;;30.24;43.93
68616;BME280;57261;47.504;19.084;2022-07-22T06:07:04;100519.59;;;30.30;43.94
68616;BME280;57261;47.504;19.084;2022-07-22T06:10:06;100514.19;;;30.40;44.47
68616;BME280;57261;47.504;19.084;2022-07-22T06:13:07;100522.44;;;30.46;43.59
68616;BME280;57261;47.504;19.084;2022-07-22T06:16:07;100519.91;;;30.45;44.49
68616;BME280;57261;47.504;19.084;2022-07-22T06:19:08;100522.34;;;30.38;45.54
68616;BME280;57261;47.504;19.084;2022-07-22T06:22:08;100521.56;;;30.46;42.04
68616;BME280;57261;47.504;19.084;2022-07-22T06:25:14;100521.00;;;30.42;40.42
68616;BME280;57261;47.504;19.084;2022-07-22T06:28:14;100518.09;;;30.45;39.47
68616;BME280;57261;47.504;19.084;2022-07-22T06:31:15;100523.84;;;30.41;41.19
68616;BME280;57261;47.504;19.084;2022-07-22T06:34:16;100517.53;;;30.42;40.63
68616;BME280;57261;47.504;19.084;2022-07-22T06:37:17;100520.88;;;30.44;40.76
68616;BME280;57261;47.504;19.084;2022-07-22T06:40:18;100529.16;;;30.41;42.83
68616;BME280;57261;47.504;19.084;2022-07-22T06:43:18;100515.69;;;30.42;44.99
68616;BME280;57261;47.504;19.084;2022-07-22T06:46:18;100511.06;;;30.44;39.79
68616;BME280;57261;47.504;19.084;2022-07-22T06:49:19;100522.84;;;30.42;44.03
68616;BME280;57261;47.504;19.084;2022-07-22T06:52:19;100516.13;;;30.47;45.01
68616;BME280;57261;47.504;19.084;2022-07-22T06:55:20;100508.25;;;30.46;45.37
68616;BME280;57261;47.504;19.084;2022-07-22T06:58:20;100517.28;;;30.53;39.47
68616;BME280;57261;47.504;19.084;2022-07-22T07:01:21;100517.00;;;30.56;43.42
68616;BME280;57261;47.504;19.084;2022-07-22T07:04:21;100506.00;;;30.51;42.00
68616;BME280;57261;47.504;19.084;2022-07-22T07:07:21;100513.81;;;30.52;43.30
68616;BME280;57261;47.504;19.084;2022-07-22T07:10:22;100513.28;;;30.49;44.85
68616;BME280;57261;47.504;19.084;2022-07-22T07:13:23;100515.44;;;30.45;45.55
68616;BME280;57261;47.504;19.084;2022-07-22T07:16:23;100516.13;;;30.47;45.49
68616;BME280;57261;47.504;19.084;2022-07-22T07:19:23;100507.44;;;30.45;40.18
68616;BME280;57261;47.504;19.084;2022-07-22T07:22:24;100516.00;;;30.57;42.97
68616;BME280;57261;47.504;19.084;2022-07-22T07:25:24;100515.00;;;30.58;42.51
68616;BME280;57261;47.504;19.084;2022-07-22T07:28:25;100497.75;;;30.44;46.09
68616;BME280;57261;47.504;19.084;2022-07-22T07:31:25;100507.50;;;30.53;41.90
68616;BME280;57261;47.504;19.084;2022-07-22T07:34:25;100513.28;;;30.49;45.23
68616;BME280;57261;47.504;19.084;2022-07-22T07:37:26;100519.31;;;30.59;43.97
68616;BME280;57261;47.504;19.084;2022-07-22T07:40:27;100507.84;;;30.58;45.43
68616;BME280;57261;47.504;19.084;2022-07-22T07:43:27;100504.66;;;30.55;43.73
68616;BME280;57261;47.504;19.084;2022-07-22T07:46:27;100508.06;;;30.65;42.87
68616;BME280;57261;47.504;19.084;2022-07-22T07:49:28;100507.72;;;30.68;44.71
68616;BME280;57261;47.504;19.084;2022-07-22T07:52:28;100508.59;;;30.68;45.65
68616;BME280;57261;47.504;19.084;2022-07-22T07:55:29;100509.72;;;30.66;44.92
68616;BME280;57261;47.504;19.084;2022-07-22T07:58:30;100508.38;;;30.62;45.23
68616;BME280;57261;47.504;19.084;2022-07-22T08:01:30;100513.88;;;30.60;44.77
68616;BME280;57261;47.504;19.084;2022-07-22T08:04:31;100507.72;;;30.68;43.42
68616;BME280;57261;47.504;19.084;2022-07-22T08:07:32;100501.72;;;30.66;45.10
68616;BME280;57261;47.504;19.084;2022-07-22T08:10:32;100494.94;;;30.71;44.15
68616;BME280;57261;47.504;19.084;2022-07-22T08:13:33;100498.16;;;30.82;41.47
68616;BME280;57261;47.504;19.084;2022-07-22T08:16:33;100493.66;;;30.75;42.96
68616;BME280;57261;47.504;19.084;2022-07-22T08:19:34;100496.31;;;30.75;43.18
68616;BME280;57261;47.504;19.084;2022-07-22T08:22:34;100490.78;;;30.69;44.27
68616;BME280;57261;47.504;19.084;2022-07-22T08:25:35;100494.91;;;30.63;43.14
68616;BME280;57261;47.504;19.084;2022-07-22T08:28:37;100490.38;;;30.56;42.94
68616;BME280;57261;47.504;19.084;2022-07-22T08:31:37;100499.88;;;30.58;43.47
68616;BME280;57261;47.504;19.084;2022-07-22T08:34:38;100495.47;;;30.49;43.39
68616;BME280;57261;47.504;19.084;2022-07-22T08:37:40;100492.00;;;30.49;41.80
68616;BME280;57261;47.504;19.084;2022-07-22T08:40:40;100489.50;;;30.47;44.98
68616;BME280;57261;47.504;19.084;2022-07-22T08:43:41;100494.50;;;30.50;44.48
68616;BME280;57261;47.504;19.084;2022-07-22T08:46:44;100500.03;;;30.57;43.91
68616;BME280;57261;47.504;19.084;2022-07-22T08:49:45;100492.19;;;30.55;44.04
68616;BME280;57261;47.504;19.084;2022-07-22T08:52:45;100490.47;;;30.46;44.57
68616;BME280;57261;47.504;19.084;2022-07-22T08:55:47;100497.66;;;30.54;43.84
68616;BME280;57261;47.504;19.084;2022-07-22T08:58:48;100484.00;;;30.49;45.12
68616;BME280;57261;47.504;19.084;2022-07-22T09:02:05;100491.81;;;30.50;44.05
68616;BME280;57261;47.504;19.084;2022-07-22T09:05:09;100491.59;;;30.44;43.40
68616;BME280;57261;47.504;19.084;2022-07-22T09:08:09;100492.75;;;30.41;43.04
68616;BME280;57261;47.504;19.084;2022-07-22T09:11:21;100493.97;;;30.47;42.54
68616;BME280;57261;47.504;19.084;2022-07-22T09:14:21;100482.13;;;30.41;43.07
68616;BME280;57261;47.504;19.084;2022-07-22T09:17:36;100484.19;;;30.47;42.29
68616;BME280;57261;47.504;19.084;2022-07-22T09:20:37;100479.13;;;30.44;42.04
68616;BME280;57261;47.504;19.084;2022-07-22T09:23:39;100484.44;;;30.44;41.96
68616;BME280;57261;47.504;19.084;2022-07-22T09:26:41;100470.69;;;30.49;41.48
68616;BME280;57261;47.504;19.084;2022-07-22T09:29:49;100475.22;;;30.48;41.84
68616;BME280;57261;47.504;19.084;2022-07-22T09:32:51;100472.75;;;30.37;42.44
68616;BME280;57261;47.504;19.084;2022-07-22T09:36:01;100467.88;;;30.50;42.14
68616;BME280;57261;47.504;19.084;2022-07-22T09:39:26;100476.72;;;30.59;42.02
68616;BME280;57261;47.504;19.084;2022-07-22T09:42:27;100471.84;;;30.46;42.38
68616;BME280;57261;47.504;19.084;2022-07-22T09:45:47;100475.84;;;30.50;41.38
68616;BME280;57261;47.504;19.084;2022-07-22T09:48:48;100472.00;;;30.45;42.58
68616;BME280;57261;47.504;19.084;2022-07-22T09:51:48;100469.31;;;30.45;42.77
68616;BME280;57261;47.504;19.084;2022-07-22T09:54:50;100457.47;;;30.39;42.61
68616;BME280;57261;47.504;19.084;2022-07-22T09:57:52;100469.31;;;30.45;42.77
68616;BME280;57261;47.504;19.084;2022-07-22T10:00:58;100462.03;;;30.47;42.10
68616;BME280;57261;47.504;19.084;2022-07-22T10:03:59;100451.38;;;30.47;42.39
68616;BME280;57261;47.504;19.084;2022-07-22T10:07:01;100452.00;;;30.41;42.52
68616;BME280;57261;47.504;19.084;2022-07-22T10:10:02;100450.47;;;30.38;42.40
68616;BME280;57261;47.504;19.084;2022-07-22T10:13:04;100457.66;;;30.38;42.12
68616;BME280;57261;47.504;19.084;2022-07-22T10:16:05;100457.47;;;30.39;42.00
68616;BME280;57261;47.504;19.084;2022-07-22T10:19:06;100434.34;;;30.40;41.76
68616;BME280;57261;47.504;19.084;2022-07-22T10:25:49;100435.28;;;30.48;40.94
68616;BME280;57261;47.504;19.084;2022-07-22T10:29:40;100438.13;;;30.55;41.79
68616;BME280;57261;47.504;19.084;2022-07-22T10:32:44;100428.56;;;30.44;42.35
68616;BME280;57261;47.504;19.084;2022-07-22T10:35:52;100430.94;;;30.47;41.87
68616;BME280;57261;47.504;19.084;2022-07-22T10:39:09;100425.50;;;30.57;40.79
68616;BME280;57261;47.504;19.084;2022-07-22T10:42:09;100420.81;;;30.59;41.54
68616;BME280;57261;47.504;19.084;2022-07-22T10:45:10;100425.16;;;30.60;41.45
68616;BME280;57261;47.504;19.084;2022-07-22T10:48:17;100416.91;;;30.71;41.29
68616;BME280;57261;47.504;19.084;2022-07-22T10:51:19;100425.91;;;30.77;42.95
68616;BME280;57261;47.504;19.084;2022-07-22T10:54:26;100418.44;;;30.81;42.31
68616;BME280;57261;47.504;19.084;2022-07-22T10:57:31;100412.59;;;30.85;42.40
68616;BME280;57261;47.504;19.084;2022-07-22T11:00:33;100413.91;;;30.73;42.98
68616;BME280;57261;47.504;19.084;2022-07-22T11:03:35;100408.91;;;30.78;42.27
68616;BME280;57261;47.504;19.084;2022-07-22T11:06:36;100408.66;;;30.97;41.78
68616;BME280;57261;47.504;19.084;2022-07-22T11:09:37;100407.66;;;30.90;41.10
68616;BME280;57261;47.504;19.084;2022-07-22T11:12:39;100403.88;;;31.01;41.63
68616;BME280;57261;47.504;19.084;2022-07-22T11:15:39;100398.03;;;30.97;42.35
68616;BME280;57261;47.504;19.084;2022-07-22T11:19:00;100402.97;;;30.84;41.71
68616;BME280;57261;47.504;19.084;2022-07-22T11:22:04;100388.97;;;30.82;41.95
68616;BME280;57261;47.504;19.084;2022-07-22T11:25:09;100388.66;;;30.93;41.63
68616;BME280;57261;47.504;19.084;2022-07-22T11:28:10;100383.69;;;30.90;42.00
68616;BME280;57261;47.504;19.084;2022-07-22T11:31:16;100386.84;;;30.94;42.16
68616;BME280;57261;47.504;19.084;2022-07-22T11:34:18;100379.38;;;31.05;40.94
68616;BME280;57261;47.504;19.084;2022-07-22T11:37:22;100382.56;;;31.01;41.68
68616;BME280;57261;47.504;19.084;2022-07-22T11:40:31;100374.34;;;30.94;40.92
68616;BME280;57261;47.504;19.084;2022-07-22T11:43:43;100364.41;;;31.12;41.43
68616;BME280;57261;47.504;19.084;2022-07-22T11:46:43;100355.81;;;31.58;39.89
68616;BME280;57261;47.504;19.084;2022-07-22T11:49:46;100350.13;;;34.03;35.21
68616;BME280;57261;47.504;19.084;2022-07-22T11:52:54;100347.06;;;37.03;31.85
68616;BME280;57261;47.504;19.084;2022-07-22T11:56:01;100336.94;;;39.16;27.19
68616;BME280;57261;47.504;19.084;2022-07-22T11:59:03;100327.16;;;40.66;26.62
68616;BME280;57261;47.504;19.084;2022-07-22T12:02:08;100329.00;;;41.87;24.06
68616;BME280;57261;47.504;19.084;2022-07-22T12:05:12;100315.94;;;42.86;23.88
68616;BME280;57261;47.504;19.084;2022-07-22T12:08:13;100313.22;;;43.63;23.71
68616;BME280;57261;47.504;19.084;2022-07-22T12:11:15;100306.97;;;44.38;22.83
68616;BME280;57261;47.504;19.084;2022-07-22T12:14:22;100305.63;;;45.09;22.31
68616;BME280;57261;47.504;19.084;2022-07-22T12:17:27;100290.75;;;45.99;21.93
68616;BME280;57261;47.504;19.084;2022-07-22T12:20:29;100295.41;;;46.60;21.47
68616;BME280;57261;47.504;19.084;2022-07-22T12:23:29;100294.69;;;47.04;20.82
68616;BME280;57261;47.504;19.084;2022-07-22T12:26:43;100293.91;;;47.48;20.89
68616;BME280;57261;47.504;19.084;2022-07-22T12:29:46;100286.97;;;47.91;20.59
68616;BME280;57261;47.504;19.084;2022-07-22T12:32:47;100279.63;;;47.81;20.02
68616;BME280;57261;47.504;19.084;2022-07-22T12:36:05;100279.50;;;48.21;20.47
68616;BME280;57261;47.504;19.084;2022-07-22T12:42:17;100262.47;;;48.77;20.05
68616;BME280;57261;47.504;19.084;2022-07-22T12:45:18;100268.41;;;48.89;19.93
68616;BME280;57261;47.504;19.084;2022-07-22T12:48:27;100265.63;;;48.94;19.96
68616;BME280;57261;47.504;19.084;2022-07-22T12:51:28;100251.94;;;48.94;19.87
68616;BME280;57261;47.504;19.084;2022-07-22T12:54:29;100251.94;;;48.94;19.87
68616;BME280;57261;47.504;19.084;2022-07-22T12:57:30;100250.03;;;49.79;19.18
68616;BME280;57261;47.504;19.084;2022-07-22T13:00:33;100252.47;;;49.57;19.29
68616;BME280;57261;47.504;19.084;2022-07-22T13:03:34;100249.59;;;49.96;19.00
68616;BME280;57261;47.504;19.084;2022-07-22T13:06:34;100253.53;;;49.85;19.30
68616;BME280;57261;47.504;19.084;2022-07-22T13:09:35;100243.13;;;50.05;19.32
68616;BME280;57261;47.504;19.084;2022-07-22T13:12:36;100246.97;;;49.81;19.05
68616;BME280;57261;47.504;19.084;2022-07-22T13:15:38;100229.22;;;50.20;18.72
68616;BME280;57261;47.504;19.084;2022-07-22T13:18:38;100239.13;;;50.16;18.65
68616;BME280;57261;47.504;19.084;2022-07-22T13:21:39;100233.38;;;50.36;18.36
68616;BME280;57261;47.504;19.084;2022-07-22T13:24:39;100234.91;;;49.82;18.54
68616;BME280;57261;47.504;19.084;2022-07-22T13:27:40;100226.78;;;48.82;19.17
68616;BME280;57261;47.504;19.084;2022-07-22T13:30:41;100235.13;;;47.16;19.90
68616;BME280;57261;47.504;19.084;2022-07-22T13:33:41;100227.72;;;45.91;21.27
68616;BME280;57261;47.504;19.084;2022-07-22T13:36:41;100213.91;;;44.62;21.74
68616;BME280;57261;47.504;19.084;2022-07-22T13:39:42;100213.91;;;44.62;21.74
68616;BME280;57261;47.504;19.084;2022-07-22T13:42:45;100213.91;;;44.62;21.74
68616;BME280;57261;47.504;19.084;2022-07-22T13:45:46;100217.91;;;42.54;23.72
68616;BME280;57261;47.504;19.084;2022-07-22T13:48:46;100214.91;;;42.00;24.25
68616;BME280;57261;47.504;19.084;2022-07-22T13:51:47;100209.78;;;41.53;24.84
68616;BME280;57261;47.504;19.084;2022-07-22T13:54:47;100223.06;;;41.09;25.36
68616;BME280;57261;47.504;19.084;2022-07-22T13:57:47;100217.50;;;40.92;25.82
68616;BME280;57261;47.504;19.084;2022-07-22T14:00:50;100208.09;;;40.54;25.74
68616;BME280;57261;47.504;19.084;2022-07-22T14:03:51;100202.00;;;40.11;26.42
68616;BME280;57261;47.504;19.084;2022-07-22T14:06:51;100210.28;;;39.81;25.59
68616;BME280;57261;47.504;19.084;2022-07-22T14:09:52;100210.28;;;39.81;25.59
68616;BME280;57261;47.504;19.084;2022-07-22T14:12:53;100204.69;;;39.40;26.37
68616;BME280;57261;47.504;19.084;2022-07-22T14:15:53;100199.59;;;39.08;26.55
68616;BME280;57261;47.504;19.084;2022-07-22T14:18:53;100201.31;;;38.96;26.95
68616;BME280;57261;47.504;19.084;2022-07-22T14:21:54;100204.66;;;38.67;27.18
68616;BME280;57261;47.504;19.084;2022-07-22T14:24:54;100193.94;;;38.54;27.70
68616;BME280;57261;47.504;19.084;2022-07-22T14:27:55;100201.09;;;38.36;27.18
68616;BME280;57261;47.504;19.084;2022-07-22T14:30:55;100185.44;;;38.13;28.06
68616;BME280;57261;47.504;19.084;2022-07-22T14:33:56;100175.13;;;38.04;27.88
68616;BME280;57261;47.504;19.084;2022-07-22T14:36:57;100176.25;;;37.83;28.09
68616;BME280;57261;47.504;19.084;2022-07-22T14:39:57;100180.00;;;37.69;28.43
68616;BME280;57261;47.504;19.084;2022-07-22T14:42:58;100179.78;;;37.65;29.07
68616;BME280;57261;47.504;19.084;2022-07-22T14:45:59;100179.38;;;37.67;28.55
68616;BME280;57261;47.504;19.084;2022-07-22T14:49:01;100177.31;;;37.63;27.72
68616;BME280;57261;47.504;19.084;2022-07-22T14:52:01;100183.97;;;37.67;28.10
68616;BME280;57261;47.504;19.084;2022-07-22T14:55:02;100177.81;;;37.41;28.66
68616;BME280;57261;47.504;19.084;2022-07-22T14:58:02;100176.59;;;37.30;28.63
68616;BME280;57261;47.504;19.084;2022-07-22T15:01:03;100179.69;;;37.08;28.96
68616;BME280;57261;47.504;19.084;2022-07-22T15:04:03;100165.66;;;36.99;28.87
68616;BME280;57261;47.504;19.084;2022-07-22T15:07:06;100178.97;;;36.28;34.85
68616;BME280;57261;47.504;19.084;2022-07-22T15:10:07;100189.84;;;35.40;35.79
68616;BME280;57261;47.504;19.084;2022-07-22T15:13:08;100185.31;;;34.86;36.32
68616;BME280;57261;47.504;19.084;2022-07-22T15:16:08;100185.97;;;34.53;36.88
68616;BME280;57261;47.504;19.084;2022-07-22T15:19:09;100181.56;;;34.24;36.74
68616;BME280;57261;47.504;19.084;2022-07-22T15:22:10;100172.38;;;33.98;37.51
68616;BME280;57261;47.504;19.084;2022-07-22T15:25:11;100166.25;;;33.69;37.48
68616;BME280;57261;47.504;19.084;2022-07-22T15:28:13;100174.34;;;33.61;38.30
68616;BME280;57261;47.504;19.084;2022-07-22T15:31:17;100176.91;;;33.40;38.63
68616;BME280;57261;47.504;19.084;2022-07-22T15:34:17;100162.91;;;33.38;38.43
68616;BME280;57261;47.504;19.084;2022-07-22T15:37:18;100161.13;;;33.16;38.65
68616;BME280;57261;47.504;19.084;2022-07-22T15:40:21;100158.97;;;33.63;34.07
68616;BME280;57261;47.504;19.084;2022-07-22T15:43:21;100167.84;;;33.98;33.63
68616;BME280;57261;47.504;19.084;2022-07-22T15:46:22;100155.34;;;34.20;32.70